sensor_id;sensor_type;location;lat;lon;timestamp;P1;durP1;ratioP1;P2;durP2;ratioP2
63005;SDS011;53704;52.532;6.426;2023-03-08T00:01:14;4.97;;;4.45;;
63005;SDS011;53704;52.532;6.426;2023-03-08T00:03:41;6.47;;;4.65;;
63005;SDS011;53704;52.532;6.426;2023-03-08T00:06:07;5.70;;;4.35;;
63005;SDS011;53704;52.532;6.426;2023-03-08T00:08:36;6.03;;;4.75;;
63005;SDS011;53704;52.532;6.426;2023-03-08T00:11:05;5.40;;;4.90;;
63005;SDS011;53704;52.532;6.426;2023-03-08T00:13:31;5.53;;;4.95;;
63005;SDS011;53704;52.532;6.426;2023-03-08T00:16:01;6.03;;;5.53;;
63005;SDS011;53704;52.532;6.426;2023-03-08T00:18:28;9.27;;;5.63;;
63005;SDS011;53704;52.532;6.426;2023-03-08T00:23:52;6.22;;;5.70;;
63005;SDS011;53704;52.532;6.426;2023-03-08T00:26:18;6.13;;;5.63;;
63005;SDS011;53704;52.532;6.426;2023-03-08T00:28:44;6.97;;;6.07;;
63005;SDS011;53704;52.532;6.426;2023-03-08T00:31:11;6.43;;;5.93;;
63005;SDS011;53704;52.532;6.426;2023-03-08T00:33:37;6.43;;;5.87;;
63005;SDS011;53704;52.532;6.426;2023-03-08T00:36:12;7.60;;;6.47;;
63005;SDS011;53704;52.532;6.426;2023-03-08T00:38:39;8.88;;;6.63;;
63005;SDS011;53704;52.532;6.426;2023-03-08T00:41:05;7.85;;;6.85;;
63005;SDS011;53704;52.532;6.426;2023-03-08T00:43:31;8.63;;;7.70;;
63005;SDS011;53704;52.532;6.426;2023-03-08T00:45:57;9.47;;;7.70;;
63005;SDS011;53704;52.532;6.426;2023-03-08T00:48:22;7.53;;;6.93;;
63005;SDS011;53704;52.532;6.426;2023-03-08T00:50:48;8.30;;;7.53;;
63005;SDS011;53704;52.532;6.426;2023-03-08T00:53:13;8.75;;;7.03;;
63005;SDS011;53704;52.532;6.426;2023-03-08T00:55:39;7.25;;;6.68;;
63005;SDS011;53704;52.532;6.426;2023-03-08T00:58:13;8.15;;;7.45;;
63005;SDS011;53704;52.532;6.426;2023-03-08T01:00:38;9.40;;;8.37;;
63005;SDS011;53704;52.532;6.426;2023-03-08T01:03:03;8.18;;;7.38;;
63005;SDS011;53704;52.532;6.426;2023-03-08T01:05:29;11.57;;;8.57;;
63005;SDS011;53704;52.532;6.426;2023-03-08T01:07:54;9.80;;;8.10;;
63005;SDS011;53704;52.532;6.426;2023-03-08T01:10:20;7.88;;;7.07;;
63005;SDS011;53704;52.532;6.426;2023-03-08T01:12:45;9.37;;;7.83;;
63005;SDS011;53704;52.532;6.426;2023-03-08T01:15:11;7.53;;;6.82;;
63005;SDS011;53704;52.532;6.426;2023-03-08T01:17:36;10.90;;;8.23;;
63005;SDS011;53704;52.532;6.426;2023-03-08T01:20:02;8.63;;;7.77;;
63005;SDS011;53704;52.532;6.426;2023-03-08T01:22:28;11.80;;;7.93;;
63005;SDS011;53704;52.532;6.426;2023-03-08T01:24:54;15.18;;;8.25;;
63005;SDS011;53704;52.532;6.426;2023-03-08T01:27:19;8.55;;;7.60;;
63005;SDS011;53704;52.532;6.426;2023-03-08T01:29:44;8.88;;;7.35;;
63005;SDS011;53704;52.532;6.426;2023-03-08T01:32:10;8.10;;;7.30;;
63005;SDS011;53704;52.532;6.426;2023-03-08T01:34:36;9.10;;;6.70;;
63005;SDS011;53704;52.532;6.426;2023-03-08T01:37:02;9.02;;;8.13;;
63005;SDS011;53704;52.532;6.426;2023-03-08T01:39:28;10.13;;;7.90;;
63005;SDS011;53704;52.532;6.426;2023-03-08T01:41:54;9.40;;;6.83;;
63005;SDS011;53704;52.532;6.426;2023-03-08T01:44:19;9.00;;;7.37;;
63005;SDS011;53704;52.532;6.426;2023-03-08T01:46:47;7.88;;;7.15;;
63005;SDS011;53704;52.532;6.426;2023-03-08T01:49:20;11.83;;;7.13;;
63005;SDS011;53704;52.532;6.426;2023-03-08T01:51:55;10.60;;;6.87;;
63005;SDS011;53704;52.532;6.426;2023-03-08T01:54:34;13.90;;;7.40;;
63005;SDS011;53704;52.532;6.426;2023-03-08T01:57:04;10.07;;;7.20;;
63005;SDS011;53704;52.532;6.426;2023-03-08T01:59:36;8.03;;;7.23;;
63005;SDS011;53704;52.532;6.426;2023-03-08T02:02:02;12.45;;;7.30;;
63005;SDS011;53704;52.532;6.426;2023-03-08T02:04:28;6.90;;;6.28;;
63005;SDS011;53704;52.532;6.426;2023-03-08T02:06:54;9.55;;;7.25;;
63005;SDS011;53704;52.532;6.426;2023-03-08T02:09:20;8.63;;;6.87;;
63005;SDS011;53704;52.532;6.426;2023-03-08T02:11:46;7.67;;;6.93;;
63005;SDS011;53704;52.532;6.426;2023-03-08T02:14:12;12.33;;;6.80;;
63005;SDS011;53704;52.532;6.426;2023-03-08T02:16:38;8.48;;;6.70;;
63005;SDS011;53704;52.532;6.426;2023-03-08T02:19:05;14.23;;;7.37;;
63005;SDS011;53704;52.532;6.426;2023-03-08T02:21:36;7.60;;;6.93;;
63005;SDS011;53704;52.532;6.426;2023-03-08T02:24:06;6.85;;;6.45;;
63005;SDS011;53704;52.532;6.426;2023-03-08T02:26:42;6.80;;;6.30;;
63005;SDS011;53704;52.532;6.426;2023-03-08T02:29:09;7.67;;;6.80;;
63005;SDS011;53704;52.532;6.426;2023-03-08T02:31:34;10.67;;;6.37;;
63005;SDS011;53704;52.532;6.426;2023-03-08T02:34:00;11.77;;;5.93;;
63005;SDS011;53704;52.532;6.426;2023-03-08T02:36:25;10.13;;;6.27;;
63005;SDS011;53704;52.532;6.426;2023-03-08T02:38:51;6.07;;;5.57;;
63005;SDS011;53704;52.532;6.426;2023-03-08T02:41:16;13.03;;;6.77;;
63005;SDS011;53704;52.532;6.426;2023-03-08T02:43:41;7.53;;;5.70;;
63005;SDS011;53704;52.532;6.426;2023-03-08T02:46:09;7.17;;;5.07;;
63005;SDS011;53704;52.532;6.426;2023-03-08T02:48:36;8.27;;;5.00;;
63005;SDS011;53704;52.532;6.426;2023-03-08T02:51:01;5.47;;;4.97;;
63005;SDS011;53704;52.532;6.426;2023-03-08T02:53:27;5.77;;;5.27;;
63005;SDS011;53704;52.532;6.426;2023-03-08T02:55:52;6.33;;;4.57;;
63005;SDS011;53704;52.532;6.426;2023-03-08T02:58:18;6.87;;;4.57;;
63005;SDS011;53704;52.532;6.426;2023-03-08T03:00:43;5.87;;;5.33;;
63005;SDS011;53704;52.532;6.426;2023-03-08T03:03:09;6.00;;;5.40;;
63005;SDS011;53704;52.532;6.426;2023-03-08T03:05:34;5.20;;;4.55;;
63005;SDS011;53704;52.532;6.426;2023-03-08T03:08:05;10.53;;;5.17;;
63005;SDS011;53704;52.532;6.426;2023-03-08T03:10:30;18.07;;;5.17;;
63005;SDS011;53704;52.532;6.426;2023-03-08T03:12:55;11.77;;;4.93;;
63005;SDS011;53704;52.532;6.426;2023-03-08T03:15:21;17.50;;;5.37;;
63005;SDS011;53704;52.532;6.426;2023-03-08T03:17:46;6.87;;;4.60;;
63005;SDS011;53704;52.532;6.426;2023-03-08T03:20:12;7.25;;;5.00;;
63005;SDS011;53704;52.532;6.426;2023-03-08T03:22:37;5.75;;;4.72;;
63005;SDS011;53704;52.532;6.426;2023-03-08T03:25:03;5.37;;;4.57;;
63005;SDS011;53704;52.532;6.426;2023-03-08T03:27:29;4.53;;;4.10;;
63005;SDS011;53704;52.532;6.426;2023-03-08T03:29:54;7.97;;;4.70;;
63005;SDS011;53704;52.532;6.426;2023-03-08T03:32:20;5.50;;;3.37;;
63005;SDS011;53704;52.532;6.426;2023-03-08T03:34:45;4.23;;;3.87;;
63005;SDS011;53704;52.532;6.426;2023-03-08T03:37:11;8.45;;;4.00;;
63005;SDS011;53704;52.532;6.426;2023-03-08T03:39:37;4.47;;;3.73;;
63005;SDS011;53704;52.532;6.426;2023-03-08T03:42:04;5.70;;;3.90;;
63005;SDS011;53704;52.532;6.426;2023-03-08T03:44:30;4.55;;;3.95;;
63005;SDS011;53704;52.532;6.426;2023-03-08T03:46:56;7.97;;;4.07;;
63005;SDS011;53704;52.532;6.426;2023-03-08T03:49:21;4.88;;;3.95;;
63005;SDS011;53704;52.532;6.426;2023-03-08T03:51:47;4.17;;;3.80;;
63005;SDS011;53704;52.532;6.426;2023-03-08T03:54:12;4.03;;;3.60;;
63005;SDS011;53704;52.532;6.426;2023-03-08T03:56:38;8.73;;;4.10;;
63005;SDS011;53704;52.532;6.426;2023-03-08T03:59:03;3.30;;;3.10;;
63005;SDS011;53704;52.532;6.426;2023-03-08T04:01:30;4.70;;;4.30;;
63005;SDS011;53704;52.532;6.426;2023-03-08T04:03:56;3.90;;;3.58;;
63005;SDS011;53704;52.532;6.426;2023-03-08T04:06:23;3.83;;;3.40;;
63005;SDS011;53704;52.532;6.426;2023-03-08T04:08:54;4.60;;;4.30;;
63005;SDS011;53704;52.532;6.426;2023-03-08T04:11:22;7.83;;;3.73;;
63005;SDS011;53704;52.532;6.426;2023-03-08T04:13:49;6.93;;;4.17;;
63005;SDS011;53704;52.532;6.426;2023-03-08T04:16:16;4.70;;;3.77;;
63005;SDS011;53704;52.532;6.426;2023-03-08T04:18:44;4.10;;;3.80;;
63005;SDS011;53704;52.532;6.426;2023-03-08T04:21:10;4.07;;;3.78;;
63005;SDS011;53704;52.532;6.426;2023-03-08T04:23:36;4.23;;;3.83;;
63005;SDS011;53704;52.532;6.426;2023-03-08T04:26:02;3.70;;;3.40;;
63005;SDS011;53704;52.532;6.426;2023-03-08T04:28:29;4.67;;;4.17;;
63005;SDS011;53704;52.532;6.426;2023-03-08T04:30:55;4.03;;;3.73;;
63005;SDS011;53704;52.532;6.426;2023-03-08T04:33:21;8.48;;;3.90;;
63005;SDS011;53704;52.532;6.426;2023-03-08T04:35:47;4.57;;;4.07;;
63005;SDS011;53704;52.532;6.426;2023-03-08T04:38:13;7.10;;;3.97;;
63005;SDS011;53704;52.532;6.426;2023-03-08T04:40:39;4.43;;;4.13;;
63005;SDS011;53704;52.532;6.426;2023-03-08T04:43:23;8.63;;;3.97;;
63005;SDS011;53704;52.532;6.426;2023-03-08T04:45:49;5.73;;;4.43;;
63005;SDS011;53704;52.532;6.426;2023-03-08T04:48:14;4.27;;;3.93;;
63005;SDS011;53704;52.532;6.426;2023-03-08T04:50:40;14.40;;;5.03;;
63005;SDS011;53704;52.532;6.426;2023-03-08T04:53:05;6.33;;;5.17;;
63005;SDS011;53704;52.532;6.426;2023-03-08T04:55:32;4.80;;;4.20;;
63005;SDS011;53704;52.532;6.426;2023-03-08T04:57:58;4.87;;;4.30;;
63005;SDS011;53704;52.532;6.426;2023-03-08T05:00:23;4.97;;;3.87;;
63005;SDS011;53704;52.532;6.426;2023-03-08T05:02:48;8.95;;;5.18;;
63005;SDS011;53704;52.532;6.426;2023-03-08T05:05:14;5.97;;;4.40;;
63005;SDS011;53704;52.532;6.426;2023-03-08T05:07:39;13.17;;;5.03;;
63005;SDS011;53704;52.532;6.426;2023-03-08T05:10:05;9.23;;;4.50;;
63005;SDS011;53704;52.532;6.426;2023-03-08T05:12:30;7.57;;;5.37;;
63005;SDS011;53704;52.532;6.426;2023-03-08T05:14:55;9.83;;;5.27;;
63005;SDS011;53704;52.532;6.426;2023-03-08T05:17:21;7.10;;;6.43;;
63005;SDS011;53704;52.532;6.426;2023-03-08T05:19:46;9.97;;;8.10;;
63005;SDS011;53704;52.532;6.426;2023-03-08T05:22:12;9.13;;;8.23;;
63005;SDS011;53704;52.532;6.426;2023-03-08T05:24:38;11.67;;;9.40;;
63005;SDS011;53704;52.532;6.426;2023-03-08T05:27:05;11.27;;;10.17;;
63005;SDS011;53704;52.532;6.426;2023-03-08T05:29:32;13.70;;;11.03;;
63005;SDS011;53704;52.532;6.426;2023-03-08T05:31:59;20.27;;;13.20;;
63005;SDS011;53704;52.532;6.426;2023-03-08T05:34:26;16.87;;;14.10;;
63005;SDS011;53704;52.532;6.426;2023-03-08T05:36:52;19.00;;;14.53;;
63005;SDS011;53704;52.532;6.426;2023-03-08T05:39:17;20.80;;;15.07;;
63005;SDS011;53704;52.532;6.426;2023-03-08T05:41:42;20.93;;;15.93;;
63005;SDS011;53704;52.532;6.426;2023-03-08T05:44:08;24.80;;;14.80;;
63005;SDS011;53704;52.532;6.426;2023-03-08T05:46:33;26.77;;;15.13;;
63005;SDS011;53704;52.532;6.426;2023-03-08T05:49:02;23.07;;;14.93;;
63005;SDS011;53704;52.532;6.426;2023-03-08T05:51:28;23.70;;;15.23;;
63005;SDS011;53704;52.532;6.426;2023-03-08T05:53:53;27.70;;;16.93;;
63005;SDS011;53704;52.532;6.426;2023-03-08T05:56:19;24.63;;;16.23;;
63005;SDS011;53704;52.532;6.426;2023-03-08T05:58:46;20.53;;;13.97;;
63005;SDS011;53704;52.532;6.426;2023-03-08T06:01:14;19.20;;;15.07;;
63005;SDS011;53704;52.532;6.426;2023-03-08T06:03:42;22.63;;;13.90;;
63005;SDS011;53704;52.532;6.426;2023-03-08T06:06:08;26.03;;;14.03;;
63005;SDS011;53704;52.532;6.426;2023-03-08T06:08:34;14.83;;;12.93;;
63005;SDS011;53704;52.532;6.426;2023-03-08T06:10:59;16.73;;;13.73;;
63005;SDS011;53704;52.532;6.426;2023-03-08T06:13:25;18.77;;;13.83;;
63005;SDS011;53704;52.532;6.426;2023-03-08T06:15:54;22.67;;;13.93;;
63005;SDS011;53704;52.532;6.426;2023-03-08T06:18:20;27.37;;;15.87;;
63005;SDS011;53704;52.532;6.426;2023-03-08T06:20:54;32.70;;;16.17;;
63005;SDS011;53704;52.532;6.426;2023-03-08T06:23:24;28.83;;;17.87;;
63005;SDS011;53704;52.532;6.426;2023-03-08T06:25:50;30.07;;;18.27;;
63005;SDS011;53704;52.532;6.426;2023-03-08T06:28:15;31.70;;;19.77;;
63005;SDS011;53704;52.532;6.426;2023-03-08T06:30:41;31.80;;;20.07;;
63005;SDS011;53704;52.532;6.426;2023-03-08T06:33:07;37.30;;;21.30;;
63005;SDS011;53704;52.532;6.426;2023-03-08T06:35:33;46.23;;;21.97;;
63005;SDS011;53704;52.532;6.426;2023-03-08T06:37:58;30.43;;;21.50;;
63005;SDS011;53704;52.532;6.426;2023-03-08T06:40:24;47.20;;;22.57;;
63005;SDS011;53704;52.532;6.426;2023-03-08T06:42:49;62.33;;;23.67;;
63005;SDS011;53704;52.532;6.426;2023-03-08T06:45:15;43.83;;;24.30;;
63005;SDS011;53704;52.532;6.426;2023-03-08T06:47:40;68.10;;;25.93;;
63005;SDS011;53704;52.532;6.426;2023-03-08T06:50:06;45.43;;;24.93;;
63005;SDS011;53704;52.532;6.426;2023-03-08T06:52:31;41.90;;;24.70;;
63005;SDS011;53704;52.532;6.426;2023-03-08T06:55:02;37.80;;;23.77;;
63005;SDS011;53704;52.532;6.426;2023-03-08T06:57:31;37.83;;;25.60;;
63005;SDS011;53704;52.532;6.426;2023-03-08T06:59:56;53.30;;;25.73;;
63005;SDS011;53704;52.532;6.426;2023-03-08T07:02:22;50.73;;;26.97;;
63005;SDS011;53704;52.532;6.426;2023-03-08T07:04:47;73.67;;;27.97;;
63005;SDS011;53704;52.532;6.426;2023-03-08T07:07:13;46.10;;;27.87;;
63005;SDS011;53704;52.532;6.426;2023-03-08T07:09:38;46.70;;;25.53;;
63005;SDS011;53704;52.532;6.426;2023-03-08T07:12:03;45.23;;;25.63;;
63005;SDS011;53704;52.532;6.426;2023-03-08T07:14:29;46.07;;;26.40;;
63005;SDS011;53704;52.532;6.426;2023-03-08T07:16:54;41.93;;;25.93;;
63005;SDS011;53704;52.532;6.426;2023-03-08T07:19:20;46.20;;;26.27;;
63005;SDS011;53704;52.532;6.426;2023-03-08T07:21:45;65.47;;;26.77;;
63005;SDS011;53704;52.532;6.426;2023-03-08T07:24:11;43.07;;;25.63;;
63005;SDS011;53704;52.532;6.426;2023-03-08T07:26:36;45.87;;;27.07;;
63005;SDS011;53704;52.532;6.426;2023-03-08T07:29:02;48.30;;;26.03;;
63005;SDS011;53704;52.532;6.426;2023-03-08T07:31:28;46.47;;;25.50;;
63005;SDS011;53704;52.532;6.426;2023-03-08T07:33:55;47.67;;;27.30;;
63005;SDS011;53704;52.532;6.426;2023-03-08T07:36:20;75.80;;;26.57;;
63005;SDS011;53704;52.532;6.426;2023-03-08T07:38:46;67.97;;;25.50;;
63005;SDS011;53704;52.532;6.426;2023-03-08T07:41:11;52.27;;;24.17;;
63005;SDS011;53704;52.532;6.426;2023-03-08T07:43:37;87.67;;;27.10;;
63005;SDS011;53704;52.532;6.426;2023-03-08T07:46:03;64.07;;;24.20;;
63005;SDS011;53704;52.532;6.426;2023-03-08T07:48:29;52.23;;;25.80;;
63005;SDS011;53704;52.532;6.426;2023-03-08T07:51:06;50.43;;;25.70;;
63005;SDS011;53704;52.532;6.426;2023-03-08T07:53:33;53.13;;;25.83;;
63005;SDS011;53704;52.532;6.426;2023-03-08T07:56:00;96.00;;;25.20;;
63005;SDS011;53704;52.532;6.426;2023-03-08T07:58:26;70.03;;;29.20;;
63005;SDS011;53704;52.532;6.426;2023-03-08T08:00:52;52.87;;;26.87;;
63005;SDS011;53704;52.532;6.426;2023-03-08T08:03:17;49.00;;;25.73;;
63005;SDS011;53704;52.532;6.426;2023-03-08T08:05:43;70.90;;;26.50;;
63005;SDS011;53704;52.532;6.426;2023-03-08T08:08:08;79.10;;;28.57;;
63005;SDS011;53704;52.532;6.426;2023-03-08T08:10:37;163.10;;;29.43;;
63005;SDS011;53704;52.532;6.426;2023-03-08T08:13:03;52.83;;;25.60;;
63005;SDS011;53704;52.532;6.426;2023-03-08T08:15:28;78.35;;;25.73;;
63005;SDS011;53704;52.532;6.426;2023-03-08T08:17:54;46.20;;;26.23;;
63005;SDS011;53704;52.532;6.426;2023-03-08T08:20:20;66.00;;;29.77;;
63005;SDS011;53704;52.532;6.426;2023-03-08T08:22:46;65.18;;;27.35;;
63005;SDS011;53704;52.532;6.426;2023-03-08T08:25:11;59.73;;;25.80;;
63005;SDS011;53704;52.532;6.426;2023-03-08T08:27:36;70.47;;;26.83;;
63005;SDS011;53704;52.532;6.426;2023-03-08T08:30:03;100.10;;;26.53;;
63005;SDS011;53704;52.532;6.426;2023-03-08T08:32:29;82.07;;;25.13;;
63005;SDS011;53704;52.532;6.426;2023-03-08T08:34:54;114.97;;;26.60;;
63005;SDS011;53704;52.532;6.426;2023-03-08T08:37:20;43.33;;;21.65;;
63005;SDS011;53704;52.532;6.426;2023-03-08T08:39:45;48.08;;;22.77;;
63005;SDS011;53704;52.532;6.426;2023-03-08T08:42:11;59.28;;;23.98;;
63005;SDS011;53704;52.532;6.426;2023-03-08T08:44:36;57.28;;;23.58;;
63005;SDS011;53704;52.532;6.426;2023-03-08T08:47:02;81.70;;;24.03;;
63005;SDS011;53704;52.532;6.426;2023-03-08T08:49:28;62.65;;;23.38;;
63005;SDS011;53704;52.532;6.426;2023-03-08T08:51:54;49.33;;;22.90;;
63005;SDS011;53704;52.532;6.426;2023-03-08T08:54:20;44.67;;;23.57;;
63005;SDS011;53704;52.532;6.426;2023-03-08T08:56:45;59.25;;;23.67;;
63005;SDS011;53704;52.532;6.426;2023-03-08T08:59:10;70.55;;;25.42;;
63005;SDS011;53704;52.532;6.426;2023-03-08T09:01:37;50.08;;;22.73;;
63005;SDS011;53704;52.532;6.426;2023-03-08T09:04:08;44.90;;;22.80;;
63005;SDS011;53704;52.532;6.426;2023-03-08T09:06:35;46.25;;;24.88;;
63005;SDS011;53704;52.532;6.426;2023-03-08T09:09:01;43.33;;;23.85;;
63005;SDS011;53704;52.532;6.426;2023-03-08T09:11:26;44.38;;;22.25;;
63005;SDS011;53704;52.532;6.426;2023-03-08T09:13:52;34.50;;;20.83;;
63005;SDS011;53704;52.532;6.426;2023-03-08T09:16:29;37.95;;;20.50;;
63005;SDS011;53704;52.532;6.426;2023-03-08T09:18:57;36.25;;;19.70;;
63005;SDS011;53704;52.532;6.426;2023-03-08T09:21:24;28.52;;;19.17;;
63005;SDS011;53704;52.532;6.426;2023-03-08T09:23:51;37.97;;;20.35;;
63005;SDS011;53704;52.532;6.426;2023-03-08T09:26:17;34.70;;;21.52;;
63005;SDS011;53704;52.532;6.426;2023-03-08T09:28:42;34.50;;;21.10;;
63005;SDS011;53704;52.532;6.426;2023-03-08T09:31:09;37.97;;;21.85;;
63005;SDS011;53704;52.532;6.426;2023-03-08T09:33:39;42.22;;;21.40;;
63005;SDS011;53704;52.532;6.426;2023-03-08T09:36:05;46.80;;;22.17;;
63005;SDS011;53704;52.532;6.426;2023-03-08T09:38:31;38.63;;;22.20;;
63005;SDS011;53704;52.532;6.426;2023-03-08T09:43:44;32.20;;;20.05;;
63005;SDS011;53704;52.532;6.426;2023-03-08T09:46:32;37.95;;;21.80;;
63005;SDS011;53704;52.532;6.426;2023-03-08T09:49:00;37.40;;;21.65;;
63005;SDS011;53704;52.532;6.426;2023-03-08T09:51:32;41.35;;;23.17;;
63005;SDS011;53704;52.532;6.426;2023-03-08T09:54:06;43.30;;;22.42;;
63005;SDS011;53704;52.532;6.426;2023-03-08T09:56:38;37.00;;;23.03;;
63005;SDS011;53704;52.532;6.426;2023-03-08T09:59:12;45.28;;;21.80;;
63005;SDS011;53704;52.532;6.426;2023-03-08T10:04:50;48.85;;;22.92;;
63005;SDS011;53704;52.532;6.426;2023-03-08T10:07:42;35.00;;;21.00;;
63005;SDS011;53704;52.532;6.426;2023-03-08T10:16:03;45.67;;;21.88;;
63005;SDS011;53704;52.532;6.426;2023-03-08T10:21:37;39.35;;;19.58;;
63005;SDS011;53704;52.532;6.426;2023-03-08T10:26:53;30.17;;;18.60;;
63005;SDS011;53704;52.532;6.426;2023-03-08T10:29:24;32.20;;;17.75;;
63005;SDS011;53704;52.532;6.426;2023-03-08T10:31:50;33.28;;;19.08;;
63005;SDS011;53704;52.532;6.426;2023-03-08T10:37:00;29.17;;;16.95;;
63005;SDS011;53704;52.532;6.426;2023-03-08T10:39:28;32.88;;;19.65;;
63005;SDS011;53704;52.532;6.426;2023-03-08T10:41:54;33.55;;;18.58;;
63005;SDS011;53704;52.532;6.426;2023-03-08T10:47:02;36.55;;;17.33;;
63005;SDS011;53704;52.532;6.426;2023-03-08T10:49:41;26.02;;;17.10;;
63005;SDS011;53704;52.532;6.426;2023-03-08T10:52:17;28.08;;;17.73;;
63005;SDS011;53704;52.532;6.426;2023-03-08T10:55:01;37.95;;;17.67;;
63005;SDS011;53704;52.532;6.426;2023-03-08T10:57:34;27.52;;;17.15;;
63005;SDS011;53704;52.532;6.426;2023-03-08T11:00:02;31.88;;;16.58;;
63005;SDS011;53704;52.532;6.426;2023-03-08T11:02:40;23.30;;;15.38;;
63005;SDS011;53704;52.532;6.426;2023-03-08T11:05:19;30.25;;;17.17;;
63005;SDS011;53704;52.532;6.426;2023-03-08T11:07:54;25.05;;;16.17;;
63005;SDS011;53704;52.532;6.426;2023-03-08T11:10:22;24.08;;;17.08;;
63005;SDS011;53704;52.532;6.426;2023-03-08T11:13:02;24.25;;;14.93;;
63005;SDS011;53704;52.532;6.426;2023-03-08T11:15:33;23.02;;;14.25;;
63005;SDS011;53704;52.532;6.426;2023-03-08T11:21:08;23.65;;;14.38;;
63005;SDS011;53704;52.532;6.426;2023-03-08T11:24:06;25.02;;;15.35;;
63005;SDS011;53704;52.532;6.426;2023-03-08T11:27:01;28.00;;;16.02;;
63005;SDS011;53704;52.532;6.426;2023-03-08T11:38:16;70.50;;;25.73;;
63005;SDS011;53704;52.532;6.426;2023-03-08T11:46:16;28.10;;;17.02;;
63005;SDS011;53704;52.532;6.426;2023-03-08T11:51:27;20.63;;;13.98;;
63005;SDS011;53704;52.532;6.426;2023-03-08T11:54:17;29.08;;;15.85;;
63005;SDS011;53704;52.532;6.426;2023-03-08T11:56:55;23.88;;;16.10;;
63005;SDS011;53704;52.532;6.426;2023-03-08T12:07:24;17.73;;;13.82;;
63005;SDS011;53704;52.532;6.426;2023-03-08T12:09:57;19.60;;;11.98;;
63005;SDS011;53704;52.532;6.426;2023-03-08T12:12:31;24.40;;;12.93;;
63005;SDS011;53704;52.532;6.426;2023-03-08T12:15:05;22.45;;;14.23;;
63005;SDS011;53704;52.532;6.426;2023-03-08T12:17:52;17.02;;;12.63;;
63005;SDS011;53704;52.532;6.426;2023-03-08T12:20:23;20.92;;;13.20;;
63005;SDS011;53704;52.532;6.426;2023-03-08T12:28:01;22.13;;;12.27;;
63005;SDS011;53704;52.532;6.426;2023-03-08T12:33:20;20.02;;;12.75;;
63005;SDS011;53704;52.532;6.426;2023-03-08T12:35:55;20.88;;;12.27;;
63005;SDS011;53704;52.532;6.426;2023-03-08T12:40:51;25.58;;;11.73;;
63005;SDS011;53704;52.532;6.426;2023-03-08T12:45:43;14.27;;;10.63;;
63005;SDS011;53704;52.532;6.426;2023-03-08T12:48:32;16.85;;;11.43;;
63005;SDS011;53704;52.532;6.426;2023-03-08T12:53:53;21.83;;;11.52;;
63005;SDS011;53704;52.532;6.426;2023-03-08T12:56:30;17.10;;;11.65;;
63005;SDS011;53704;52.532;6.426;2023-03-08T13:04:01;13.85;;;9.30;;
63005;SDS011;53704;52.532;6.426;2023-03-08T13:18:07;18.38;;;11.57;;
63005;SDS011;53704;52.532;6.426;2023-03-08T13:23:06;19.05;;;12.93;;
63005;SDS011;53704;52.532;6.426;2023-03-08T13:25:45;19.15;;;12.75;;
63005;SDS011;53704;52.532;6.426;2023-03-08T13:28:32;19.90;;;13.15;;
63005;SDS011;53704;52.532;6.426;2023-03-08T13:31:10;24.63;;;17.75;;
63005;SDS011;53704;52.532;6.426;2023-03-08T13:33:46;38.15;;;20.50;;
63005;SDS011;53704;52.532;6.426;2023-03-08T13:36:15;41.63;;;24.60;;
63005;SDS011;53704;52.532;6.426;2023-03-08T13:41:30;52.72;;;26.42;;
63005;SDS011;53704;52.532;6.426;2023-03-08T13:44:06;57.95;;;29.40;;
63005;SDS011;53704;52.532;6.426;2023-03-08T13:46:38;66.68;;;29.90;;
63005;SDS011;53704;52.532;6.426;2023-03-08T13:51:52;49.75;;;24.38;;
63005;SDS011;53704;52.532;6.426;2023-03-08T13:54:27;41.97;;;22.65;;
63005;SDS011;53704;52.532;6.426;2023-03-08T13:56:58;28.02;;;17.90;;
63005;SDS011;53704;52.532;6.426;2023-03-08T13:59:26;28.73;;;15.90;;
63005;SDS011;53704;52.532;6.426;2023-03-08T14:01:53;24.20;;;14.48;;
63005;SDS011;53704;52.532;6.426;2023-03-08T14:04:22;18.95;;;12.95;;
63005;SDS011;53704;52.532;6.426;2023-03-08T14:06:51;13.77;;;10.57;;
63005;SDS011;53704;52.532;6.426;2023-03-08T14:09:18;14.10;;;11.15;;
63005;SDS011;53704;52.532;6.426;2023-03-08T14:11:44;15.10;;;10.43;;
63005;SDS011;53704;52.532;6.426;2023-03-08T14:14:39;13.35;;;9.95;;
63005;SDS011;53704;52.532;6.426;2023-03-08T14:17:11;17.90;;;10.75;;
63005;SDS011;53704;52.532;6.426;2023-03-08T14:19:43;11.98;;;9.90;;
63005;SDS011;53704;52.532;6.426;2023-03-08T14:22:16;15.77;;;10.50;;
63005;SDS011;53704;52.532;6.426;2023-03-08T14:24:47;14.20;;;10.57;;
63005;SDS011;53704;52.532;6.426;2023-03-08T14:29:40;15.30;;;8.93;;
63005;SDS011;53704;52.532;6.426;2023-03-08T14:34:37;11.25;;;9.20;;
63005;SDS011;53704;52.532;6.426;2023-03-08T14:39:35;13.50;;;9.07;;
63005;SDS011;53704;52.532;6.426;2023-03-08T14:44:41;14.55;;;9.50;;
63005;SDS011;53704;52.532;6.426;2023-03-08T14:47:28;10.05;;;8.40;;
63005;SDS011;53704;52.532;6.426;2023-03-08T14:52:32;11.75;;;7.93;;
63005;SDS011;53704;52.532;6.426;2023-03-08T14:55:00;11.30;;;9.30;;
63005;SDS011;53704;52.532;6.426;2023-03-08T14:57:28;19.42;;;9.50;;
63005;SDS011;53704;52.532;6.426;2023-03-08T15:00:04;14.20;;;8.40;;
63005;SDS011;53704;52.532;6.426;2023-03-08T15:02:38;9.32;;;8.32;;
63005;SDS011;53704;52.532;6.426;2023-03-08T15:05:04;10.65;;;8.55;;
63005;SDS011;53704;52.532;6.426;2023-03-08T15:07:31;16.30;;;9.35;;
63005;SDS011;53704;52.532;6.426;2023-03-08T15:09:59;14.05;;;9.77;;
63005;SDS011;53704;52.532;6.426;2023-03-08T15:12:27;12.27;;;9.35;;
63005;SDS011;53704;52.532;6.426;2023-03-08T15:14:52;15.85;;;9.55;;
63005;SDS011;53704;52.532;6.426;2023-03-08T15:17:18;16.20;;;9.32;;
63005;SDS011;53704;52.532;6.426;2023-03-08T15:19:43;17.13;;;9.38;;
63005;SDS011;53704;52.532;6.426;2023-03-08T15:22:09;15.00;;;8.40;;
63005;SDS011;53704;52.532;6.426;2023-03-08T15:24:35;11.73;;;9.75;;
63005;SDS011;53704;52.532;6.426;2023-03-08T15:27:01;13.23;;;8.85;;
63005;SDS011;53704;52.532;6.426;2023-03-08T15:29:28;16.05;;;9.95;;
63005;SDS011;53704;52.532;6.426;2023-03-08T15:31:55;15.52;;;9.50;;
63005;SDS011;53704;52.532;6.426;2023-03-08T15:34:21;24.92;;;10.93;;
63005;SDS011;53704;52.532;6.426;2023-03-08T15:36:48;14.27;;;9.88;;
63005;SDS011;53704;52.532;6.426;2023-03-08T15:39:14;13.63;;;9.65;;
63005;SDS011;53704;52.532;6.426;2023-03-08T15:41:40;18.75;;;9.65;;
63005;SDS011;53704;52.532;6.426;2023-03-08T15:44:05;11.73;;;9.75;;
63005;SDS011;53704;52.532;6.426;2023-03-08T15:46:31;11.10;;;9.85;;
63005;SDS011;53704;52.532;6.426;2023-03-08T15:48:56;10.15;;;9.13;;
63005;SDS011;53704;52.532;6.426;2023-03-08T15:51:23;13.13;;;9.35;;
63005;SDS011;53704;52.532;6.426;2023-03-08T15:53:56;9.80;;;8.75;;
63005;SDS011;53704;52.532;6.426;2023-03-08T15:56:22;15.63;;;9.48;;
63005;SDS011;53704;52.532;6.426;2023-03-08T15:58:49;11.05;;;8.85;;
63005;SDS011;53704;52.532;6.426;2023-03-08T16:01:16;14.23;;;9.05;;
63005;SDS011;53704;52.532;6.426;2023-03-08T16:03:41;16.65;;;8.23;;
63005;SDS011;53704;52.532;6.426;2023-03-08T16:06:07;13.32;;;8.82;;
63005;SDS011;53704;52.532;6.426;2023-03-08T16:08:39;8.85;;;7.95;;
63005;SDS011;53704;52.532;6.426;2023-03-08T16:11:06;13.82;;;8.35;;
63005;SDS011;53704;52.532;6.426;2023-03-08T16:13:33;13.30;;;8.50;;
63005;SDS011;53704;52.532;6.426;2023-03-08T16:15:59;12.82;;;10.02;;
63005;SDS011;53704;52.532;6.426;2023-03-08T16:18:26;10.70;;;8.70;;
63005;SDS011;53704;52.532;6.426;2023-03-08T16:20:53;18.02;;;8.65;;
63005;SDS011;53704;52.532;6.426;2023-03-08T16:23:19;10.10;;;8.73;;